Time;durP1;ratioP1;P1;durP2;ratioP2;P2;SDS_P1;SDS_P2;PMS_P1;PMS_P2;Temp;Humidity;BMP_temperature;BMP_pressure;BME280_temperature;BME280_humidity;BME280_pressure;Samples;Min_cycle;Max_cycle;Signal;HPM_P1;HPM_P2
2023/07/31 00:01:19;;;;;;;2.63;1.75;;;17.00;92.20;;;;;;5049612;28;20426;-84
2023/07/31 00:03:47;;;;;;;2.30;1.80;;;16.90;99.90;;;;;;5055747;28;20044;-84
2023/07/31 00:06:14;;;;;;;2.38;1.52;;;16.80;99.90;;;;;;5038536;28;20144;-84
2023/07/31 00:08:40;;;;;;;2.47;1.40;;;16.80;99.90;;;;;;5001851;28;1112939;-84
2023/07/31 00:11:07;;;;;;;2.85;1.58;;;16.70;99.90;;;;;;5026835;28;20171;-86
2023/07/31 00:13:34;;;;;;;2.55;1.42;;;16.70;99.90;;;;;;5057143;28;20059;-85
2023/07/31 00:16:01;;;;;;;2.83;1.52;;;16.60;99.90;;;;;;5044713;28;20053;-83
2023/07/31 00:18:27;;;;;;;2.10;1.30;;;16.60;99.90;;;;;;5043734;28;20159;-83
2023/07/31 00:20:54;;;;;;;2.10;1.10;;;16.50;99.90;;;;;;5044455;28;20045;-83
2023/07/31 00:23:21;;;;;;;1.60;1.25;;;16.50;99.90;;;;;;5054760;28;20094;-83
2023/07/31 00:25:48;;;;;;;1.92;1.20;;;16.50;99.90;;;;;;5063263;28;20617;-84
2023/07/31 00:28:15;;;;;;;1.15;0.88;;;16.50;99.90;;;;;;5062899;28;20045;-84
2023/07/31 00:30:41;;;;;;;1.35;0.93;;;16.50;99.90;;;;;;5062314;28;20131;-82
2023/07/31 00:33:08;;;;;;;1.15;0.80;;;16.50;99.90;;;;;;5028138;28;20049;-82
2023/07/31 00:35:35;;;;;;;1.25;0.80;;;16.40;99.90;;;;;;5042161;28;20122;-82
2023/07/31 00:38:02;;;;;;;1.90;1.10;;;16.50;99.90;;;;;;5041109;28;20545;-83
2023/07/31 00:40:28;;;;;;;1.85;0.90;;;16.50;99.90;;;;;;5058298;28;20049;-83
2023/07/31 00:42:55;;;;;;;1.27;1.00;;;16.50;99.90;;;;;;5062372;28;20068;-83
2023/07/31 00:45:22;;;;;;;1.50;0.80;;;16.50;99.90;;;;;;5054386;28;20484;-82
2023/07/31 00:47:49;;;;;;;1.30;0.70;;;16.50;99.90;;;;;;5025147;28;20055;-82
2023/07/31 00:50:16;;;;;;;0.85;0.68;;;16.50;99.90;;;;;;5041883;28;20610;-82
2023/07/31 00:52:43;;;;;;;0.95;0.45;;;16.50;99.90;;;;;;5030762;28;20053;-83
2023/07/31 00:55:10;;;;;;;0.60;0.60;;;16.60;99.90;;;;;;5038139;28;20064;-83
2023/07/31 00:57:36;;;;;;;0.73;0.50;;;16.60;99.90;;;;;;5048360;28;20044;-82
2023/07/31 01:00:04;;;;;;;0.68;0.50;;;16.60;99.90;;;;;;5044909;28;20044;-83
2023/07/31 01:02:30;;;;;;;0.82;0.47;;;16.60;99.90;;;;;;5062644;28;20056;-83
2023/07/31 01:04:57;;;;;;;1.02;0.70;;;16.60;99.90;;;;;;5043876;28;20524;-83
2023/07/31 01:07:47;;;;;;;1.00;0.60;;;16.60;99.90;;;;;;5061165;28;20060;-83
2023/07/31 01:10:23;;;;;;;0.80;0.65;;;16.60;99.90;;;;;;5061496;28;20052;-84
2023/07/31 01:12:51;;;;;;;0.50;0.50;;;16.70;99.90;;;;;;5041453;28;20609;-83
2023/07/31 01:15:17;;;;;;;0.57;0.57;;;16.70;99.90;;;;;;5025073;28;20437;-84
2023/07/31 01:17:44;;;;;;;0.50;0.50;;;16.70;99.90;;;;;;5041563;28;20072;-84
2023/07/31 01:20:22;;;;;;;0.85;0.50;;;16.70;99.90;;;;;;5042272;28;20057;-84
2023/07/31 01:23:31;;;;;;;0.52;0.40;;;16.80;99.90;;;;;;5040850;28;20057;-83
2023/07/31 01:26:01;;;;;;;0.32;0.32;;;16.80;99.90;;;;;;5044464;28;20626;-84
2023/07/31 01:28:50;;;;;;;0.60;0.50;;;16.80;99.90;;;;;;5042850;28;20045;-84
2023/07/31 01:31:20;;;;;;;0.30;0.30;;;16.80;99.90;;;;;;5042487;28;20145;-84
2023/07/31 01:33:47;;;;;;;0.85;0.60;;;16.90;99.90;;;;;;5034245;28;20065;-85
2023/07/31 01:36:14;;;;;;;0.50;0.50;;;16.90;99.90;;;;;;5039404;28;20040;-83
2023/07/31 01:38:40;;;;;;;0.35;0.32;;;16.90;99.90;;;;;;5037159;28;20462;-83
2023/07/31 01:41:07;;;;;;;0.35;0.35;;;17.00;99.90;;;;;;5044988;28;20048;-84
2023/07/31 01:43:34;;;;;;;0.40;0.35;;;17.00;99.90;;;;;;5041395;28;20090;-84
2023/07/31 01:46:01;;;;;;;0.40;0.40;;;17.00;99.90;;;;;;5045020;28;20076;-84
2023/07/31 01:48:27;;;;;;;0.95;0.50;;;17.00;99.90;;;;;;5045832;28;20049;-84
2023/07/31 01:50:54;;;;;;;0.80;0.40;;;17.00;99.90;;;;;;5051311;28;20056;-84
2023/07/31 01:53:21;;;;;;;0.60;0.45;;;17.00;99.90;;;;;;5052928;28;20053;-85
2023/07/31 01:55:48;;;;;;;0.40;0.32;;;17.00;99.90;;;;;;5046230;28;20122;-84
2023/07/31 01:58:14;;;;;;;0.38;0.38;;;17.00;99.90;;;;;;5045917;28;20099;-84
2023/07/31 02:00:41;;;;;;;0.40;0.40;;;17.00;99.90;;;;;;5045968;28;20120;-84
2023/07/31 02:03:08;;;;;;;0.40;0.40;;;17.00;99.90;;;;;;5051298;28;20048;-84
2023/07/31 02:05:35;;;;;;;0.30;0.30;;;17.10;99.90;;;;;;5054743;28;20439;-84
2023/07/31 02:08:02;;;;;;;0.43;0.40;;;17.10;99.90;;;;;;5055214;28;20290;-85
2023/07/31 02:10:32;;;;;;;0.40;0.35;;;17.10;99.90;;;;;;5058840;28;20052;-84
2023/07/31 02:12:58;;;;;;;0.70;0.63;;;17.10;99.90;;;;;;5051974;28;20132;-84
2023/07/31 02:15:25;;;;;;;0.45;0.40;;;17.10;99.90;;;;;;5066116;28;20056;-83
2023/07/31 02:17:52;;;;;;;1.10;0.50;;;17.20;99.90;;;;;;5062570;28;20102;-83
2023/07/31 02:20:19;;;;;;;0.63;0.52;;;17.20;99.90;;;;;;5045795;28;20570;-83
2023/07/31 02:22:46;;;;;;;0.60;0.40;;;17.20;99.90;;;;;;5045901;28;20045;-84
2023/07/31 02:25:13;;;;;;;0.93;0.57;;;17.20;99.90;;;;;;5042146;28;20053;-84
2023/07/31 02:27:40;;;;;;;0.90;0.80;;;17.20;99.90;;;;;;5044996;28;20053;-84
2023/07/31 02:30:07;;;;;;;0.50;0.40;;;17.20;99.90;;;;;;5047611;28;20055;-84
2023/07/31 02:32:34;;;;;;;0.60;0.50;;;17.20;99.90;;;;;;5061794;28;20425;-83
2023/07/31 02:35:01;;;;;;;0.75;0.60;;;17.20;99.90;;;;;;5048369;28;20118;-85
2023/07/31 02:37:28;;;;;;;0.52;0.50;;;17.30;99.90;;;;;;5063711;28;20052;-85
2023/07/31 02:39:55;;;;;;;0.50;0.35;;;17.30;99.90;;;;;;5046661;28;20140;-84
2023/07/31 02:42:22;;;;;;;0.73;0.60;;;17.30;99.90;;;;;;5028401;28;20045;-84
2023/07/31 02:44:51;;;;;;;0.50;0.50;;;17.30;99.90;;;;;;5062852;28;20049;-84
2023/07/31 02:47:17;;;;;;;0.88;0.60;;;17.30;99.90;;;;;;5063910;28;20500;-85
2023/07/31 02:49:44;;;;;;;1.10;0.63;;;17.30;99.90;;;;;;5049075;28;20644;-84
2023/07/31 02:52:11;;;;;;;0.70;0.60;;;17.30;99.90;;;;;;5047039;28;20044;-82
2023/07/31 02:54:38;;;;;;;0.73;0.60;;;17.30;99.90;;;;;;5041058;28;20041;-84
2023/07/31 02:57:05;;;;;;;0.40;0.40;;;17.30;99.90;;;;;;5045456;28;20102;-84
2023/07/31 02:59:31;;;;;;;0.63;0.50;;;17.30;99.90;;;;;;5044695;28;20512;-84
2023/07/31 03:01:58;;;;;;;0.85;0.50;;;17.30;99.90;;;;;;5048142;28;20118;-84
2023/07/31 03:04:25;;;;;;;0.60;0.50;;;17.30;99.90;;;;;;5045036;28;20053;-81
2023/07/31 03:06:52;;;;;;;1.75;0.88;;;17.30;99.90;;;;;;5026547;28;20064;-84
2023/07/31 03:09:19;;;;;;;0.80;0.68;;;17.30;99.90;;;;;;5048836;28;20405;-85
2023/07/31 03:11:45;;;;;;;0.85;0.68;;;17.30;99.90;;;;;;5053674;28;20053;-84
2023/07/31 03:14:12;;;;;;;1.27;0.68;;;17.30;99.90;;;;;;5050750;28;20102;-85
2023/07/31 03:16:40;;;;;;;0.60;0.50;;;17.40;99.90;;;;;;5043716;28;20061;-85
2023/07/31 03:19:07;;;;;;;0.60;0.45;;;17.40;99.90;;;;;;5025597;28;20053;-85
2023/07/31 03:21:34;;;;;;;1.10;0.57;;;17.40;99.90;;;;;;5045701;28;20492;-85
2023/07/31 03:24:01;;;;;;;0.60;0.50;;;17.40;99.90;;;;;;5064893;28;20050;-85
2023/07/31 03:26:29;;;;;;;0.60;0.57;;;17.40;99.90;;;;;;5083819;28;20056;-85
2023/07/31 03:28:56;;;;;;;0.77;0.50;;;17.40;99.90;;;;;;5042758;28;20463;-85
2023/07/31 03:31:23;;;;;;;0.70;0.45;;;17.50;99.90;;;;;;5079509;28;20056;-85
2023/07/31 03:33:49;;;;;;;0.50;0.50;;;17.50;99.90;;;;;;5065100;28;20102;-85
2023/07/31 03:36:16;;;;;;;0.50;0.50;;;17.50;99.90;;;;;;5054791;28;20489;-85
2023/07/31 03:38:43;;;;;;;1.33;0.88;;;17.50;99.90;;;;;;5074969;28;20079;-85
2023/07/31 03:41:10;;;;;;;0.60;0.50;;;17.50;99.90;;;;;;5066918;28;20523;-85
2023/07/31 03:43:37;;;;;;;0.57;0.50;;;17.50;99.90;;;;;;5065420;28;20506;-85
2023/07/31 03:46:04;;;;;;;0.98;0.47;;;17.50;99.90;;;;;;5056325;28;20117;-85
2023/07/31 03:48:30;;;;;;;1.15;0.68;;;17.50;99.90;;;;;;5055047;28;20048;-85
2023/07/31 03:50:57;;;;;;;0.57;0.40;;;17.60;99.90;;;;;;5074178;28;20114;-85
2023/07/31 03:53:24;;;;;;;0.85;0.60;;;17.60;99.90;;;;;;5066840;28;20063;-83
2023/07/31 03:55:51;;;;;;;0.55;0.43;;;17.60;99.90;;;;;;5071430;28;20128;-85
2023/07/31 03:58:17;;;;;;;0.60;0.40;;;17.60;99.90;;;;;;5080914;28;20204;-83
2023/07/31 04:00:45;;;;;;;0.73;0.47;;;17.60;99.90;;;;;;5074473;28;20443;-85
2023/07/31 04:03:11;;;;;;;1.05;0.60;;;17.60;99.90;;;;;;5076239;28;20047;-86
2023/07/31 04:05:39;;;;;;;0.50;0.50;;;17.60;99.90;;;;;;5071012;28;20480;-85
2023/07/31 04:08:06;;;;;;;1.35;0.57;;;17.70;99.90;;;;;;5078128;28;20071;-84
2023/07/31 04:10:33;;;;;;;0.93;0.38;;;17.60;99.90;;;;;;5076277;28;20052;-84
2023/07/31 04:13:00;;;;;;;0.50;0.40;;;17.70;99.90;;;;;;5066212;28;20130;-85
2023/07/31 04:15:27;;;;;;;0.82;0.40;;;17.70;99.90;;;;;;5077121;28;20048;-84
2023/07/31 04:17:54;;;;;;;0.40;0.40;;;17.70;99.90;;;;;;5075032;28;20452;-86
2023/07/31 04:20:21;;;;;;;0.30;0.30;;;17.70;99.90;;;;;;5062614;28;20064;-84
2023/07/31 04:22:48;;;;;;;0.40;0.40;;;17.80;99.90;;;;;;5066413;28;20375;-84
2023/07/31 04:25:15;;;;;;;0.20;0.20;;;17.80;99.90;;;;;;5051859;28;20048;-84
2023/07/31 04:27:42;;;;;;;0.40;0.38;;;17.80;99.90;;;;;;5082125;28;20048;-84
2023/07/31 04:30:09;;;;;;;0.30;0.30;;;17.80;99.90;;;;;;5079046;28;20105;-83
2023/07/31 04:32:36;;;;;;;0.70;0.28;;;17.80;97.90;;;;;;5076143;28;20052;-83
2023/07/31 04:35:03;;;;;;;0.30;0.28;;;17.80;99.90;;;;;;5079204;28;20060;-83
2023/07/31 04:37:29;;;;;;;0.30;0.30;;;17.80;99.90;;;;;;5067372;28;20135;-84
2023/07/31 04:39:56;;;;;;;0.20;0.20;;;17.80;99.20;;;;;;5053030;28;20048;-85
2023/07/31 04:42:24;;;;;;;0.57;0.40;;;17.80;99.90;;;;;;5075591;28;20040;-82
2023/07/31 04:44:53;;;;;;;0.35;0.35;;;17.80;95.00;;;;;;5072936;28;20052;-84
2023/07/31 04:47:19;;;;;;;0.28;0.25;;;17.90;93.70;;;;;;5077307;28;20051;-84
2023/07/31 04:49:46;;;;;;;0.60;0.50;;;17.90;93.70;;;;;;5074996;28;20093;-84
2023/07/31 04:52:13;;;;;;;0.25;0.25;;;17.90;81.60;;;;;;5078306;28;20789;-84
2023/07/31 04:54:40;;;;;;;0.52;0.52;;;17.90;83.20;;;;;;5063042;28;20107;-83
2023/07/31 04:57:06;;;;;;;0.30;0.20;;;17.90;72.50;;;;;;5066016;28;20496;-84
2023/07/31 04:59:33;;;;;;;0.40;0.40;;;17.90;65.30;;;;;;5066997;28;20857;-84
2023/07/31 05:02:00;;;;;;;0.40;0.38;;;17.90;72.40;;;;;;5065281;28;20105;-84
2023/07/31 05:04:27;;;;;;;0.40;0.40;;;17.90;74.60;;;;;;5072055;28;20525;-83
2023/07/31 05:06:53;;;;;;;0.40;0.40;;;17.90;63.40;;;;;;5059796;28;20136;-84
2023/07/31 05:09:20;;;;;;;0.30;0.30;;;18.00;57.10;;;;;;5068170;28;20075;-81
2023/07/31 05:11:47;;;;;;;0.32;0.32;;;18.00;43.60;;;;;;5048643;28;20053;-83
2023/07/31 05:14:15;;;;;;;0.25;0.20;;;18.00;34.30;;;;;;5065220;28;20090;-83
2023/07/31 05:16:42;;;;;;;0.80;0.50;;;18.00;38.20;;;;;;5068697;28;20048;-84
2023/07/31 05:19:10;;;;;;;0.30;0.30;;;18.00;37.30;;;;;;5071700;28;20044;-83
2023/07/31 05:21:37;;;;;;;0.40;0.40;;;18.00;21.00;;;;;;5075982;28;20117;-84
2023/07/31 05:24:04;;;;;;;0.47;0.35;;;18.00;25.20;;;;;;5064837;28;20045;-84
2023/07/31 05:26:32;;;;;;;0.50;0.50;;;18.00;26.30;;;;;;5063716;28;20418;-84
2023/07/31 05:28:58;;;;;;;0.50;0.50;;;18.00;15.00;;;;;;5055421;28;20576;-89
2023/07/31 05:31:25;;;;;;;0.50;0.47;;;18.10;1.00;;;;;;5074148;28;20055;-90
2023/07/31 05:33:52;;;;;;;0.35;0.35;;;18.10;1.00;;;;;;5051323;28;20092;-89
2023/07/31 05:36:19;;;;;;;0.73;0.47;;;18.10;1.00;;;;;;5079566;28;20106;-89
2023/07/31 05:38:46;;;;;;;0.73;0.40;;;18.20;1.00;;;;;;5071847;28;20477;-85
2023/07/31 05:41:13;;;;;;;0.68;0.60;;;18.20;1.00;;;;;;5074904;28;20048;-84
2023/07/31 05:43:39;;;;;;;0.40;0.40;;;18.30;1.00;;;;;;5057652;28;20048;-83
2023/07/31 05:46:06;;;;;;;0.45;0.40;;;18.30;1.00;;;;;;5064979;28;20053;-81
2023/07/31 05:48:36;;;;;;;0.40;0.40;;;18.40;1.00;;;;;;5049477;28;20044;-87
2023/07/31 05:51:03;;;;;;;1.05;0.40;;;18.40;1.00;;;;;;5051405;28;20057;-86
2023/07/31 05:53:30;;;;;;;0.70;0.50;;;18.40;1.00;;;;;;5067367;28;20496;-88
2023/07/31 05:55:56;;;;;;;0.40;0.40;;;18.50;1.00;;;;;;5069255;28;20061;-88
2023/07/31 05:58:23;;;;;;;0.57;0.40;;;18.50;99.90;;;;;;5062016;28;20049;-89
2023/07/31 06:00:50;;;;;;;1.30;0.38;;;18.60;99.90;;;;;;5071122;28;20823;-88
2023/07/31 06:03:17;;;;;;;0.30;0.25;;;18.60;99.90;;;;;;5056952;28;20087;-86
2023/07/31 06:05:44;;;;;;;0.68;0.50;;;18.60;99.90;;;;;;5072378;28;20135;-87
2023/07/31 06:08:11;;;;;;;1.40;0.82;;;18.70;99.90;;;;;;5068489;28;20041;-86
2023/07/31 06:10:38;;;;;;;0.70;0.40;;;18.70;99.90;;;;;;5070675;28;20110;-88
2023/07/31 06:13:05;;;;;;;0.45;0.45;;;18.80;99.90;;;;;;5062485;28;20072;-86
2023/07/31 06:15:31;;;;;;;1.02;0.47;;;18.80;99.90;;;;;;5065338;28;20076;-87
2023/07/31 06:18:01;;;;;;;0.60;0.43;;;18.80;99.90;;;;;;5061980;28;20357;-87
2023/07/31 06:20:28;;;;;;;1.27;0.70;;;18.80;99.90;;;;;;5068494;28;20123;-87
2023/07/31 06:22:55;;;;;;;0.60;0.55;;;18.90;99.90;;;;;;5079047;28;20048;-87
2023/07/31 06:25:22;;;;;;;0.98;0.40;;;19.00;99.90;;;;;;5048183;28;20064;-87
2023/07/31 06:27:49;;;;;;;0.80;0.60;;;19.00;99.90;;;;;;5050484;28;20388;-87
2023/07/31 06:30:15;;;;;;;0.70;0.50;;;19.10;99.90;;;;;;5074547;28;20539;-87
2023/07/31 06:32:42;;;;;;;0.68;0.60;;;19.20;99.90;;;;;;5069036;28;20513;-86
2023/07/31 06:35:09;;;;;;;1.20;0.57;;;19.20;99.90;;;;;;5075309;28;20143;-87
2023/07/31 06:37:36;;;;;;;0.45;0.43;;;19.30;99.90;;;;;;5086731;28;20418;-86
2023/07/31 06:40:05;;;;;;;1.00;0.60;;;19.40;26.40;;;;;;5077500;28;20052;-87
2023/07/31 06:42:32;;;;;;;0.93;0.60;;;19.40;1.00;;;;;;5082335;28;20384;-86
2023/07/31 06:44:59;;;;;;;0.57;0.55;;;19.50;1.00;;;;;;5076351;28;20127;-87
2023/07/31 06:47:26;;;;;;;1.15;0.88;;;19.50;1.00;;;;;;5072898;28;20109;-87
2023/07/31 06:49:53;;;;;;;0.63;0.52;;;19.60;1.00;;;;;;5045816;28;20637;-87
2023/07/31 06:52:19;;;;;;;1.00;0.70;;;19.50;1.00;;;;;;5067690;28;20086;-86
2023/07/31 06:55:00;;;;;;;0.68;0.60;;;19.50;1.00;;;;;;5018700;28;20045;-87
2023/07/31 06:57:27;;;;;;;0.95;0.60;;;19.50;1.00;;;;;;5074985;28;20036;-87
2023/07/31 06:59:53;;;;;;;0.55;0.50;;;19.50;1.00;;;;;;5076617;28;20040;-87
2023/07/31 07:02:20;;;;;;;0.60;0.40;;;19.60;1.00;;;;;;5074686;28;20150;-85
2023/07/31 07:04:47;;;;;;;0.40;0.40;;;19.50;1.00;;;;;;5065688;28;20079;-87
2023/07/31 07:07:14;;;;;;;1.02;0.60;;;19.50;1.00;;;;;;5057534;28;20052;-86
2023/07/31 07:09:40;;;;;;;0.88;0.60;;;19.60;1.00;;;;;;5042559;28;20631;-86
2023/07/31 07:12:08;;;;;;;0.45;0.45;;;19.60;1.00;;;;;;5033163;28;20049;-87
2023/07/31 07:14:35;;;;;;;0.40;0.30;;;19.70;1.00;;;;;;5074492;28;20472;-86
2023/07/31 07:17:01;;;;;;;0.43;0.40;;;19.70;1.00;;;;;;5077237;28;20056;-87
2023/07/31 07:19:28;;;;;;;0.38;0.30;;;19.70;1.00;;;;;;5064836;28;20063;-85
2023/07/31 07:21:56;;;;;;;0.98;0.73;;;19.80;1.00;;;;;;5075765;28;20094;-87
2023/07/31 07:24:22;;;;;;;0.30;0.30;;;19.90;99.90;;;;;;5057833;28;20540;-86
2023/07/31 07:26:49;;;;;;;0.63;0.60;;;20.00;99.90;;;;;;5071051;28;20106;-86
2023/07/31 07:29:16;;;;;;;0.98;0.63;;;20.00;99.90;;;;;;5059930;28;20094;-85
2023/07/31 07:31:43;;;;;;;0.38;0.32;;;20.00;99.90;;;;;;5075779;28;20052;-87
2023/07/31 07:34:09;;;;;;;0.50;0.50;;;20.00;99.90;;;;;;5068226;28;20686;-85
2023/07/31 07:36:37;;;;;;;0.70;0.40;;;20.00;99.90;;;;;;5067710;28;20132;-85
2023/07/31 07:39:05;;;;;;;0.98;0.50;;;20.00;99.90;;;;;;5066346;28;20063;-85
2023/07/31 07:41:32;;;;;;;0.85;0.50;;;20.00;99.90;;;;;;5050027;28;20122;-86
2023/07/31 07:43:59;;;;;;;0.35;0.35;;;20.10;99.90;;;;;;5066403;28;20091;-86
2023/07/31 07:46:25;;;;;;;0.75;0.60;;;20.20;99.90;;;;;;5067385;28;20090;-86
2023/07/31 07:48:52;;;;;;;1.17;0.70;;;20.30;99.90;;;;;;5057295;28;20510;-85
2023/07/31 07:51:19;;;;;;;0.70;0.60;;;20.30;99.90;;;;;;5052806;28;20177;-86
2023/07/31 07:53:46;;;;;;;0.40;0.40;;;20.40;99.90;;;;;;5053206;28;20111;-85
2023/07/31 07:56:12;;;;;;;0.85;0.50;;;20.50;1.00;;;;;;5057208;28;20044;-86
2023/07/31 07:58:39;;;;;;;0.45;0.43;;;20.60;1.00;;;;;;5063970;28;20049;-86
2023/07/31 08:01:06;;;;;;;0.32;0.32;;;20.70;99.90;;;;;;5062482;28;20528;-86
2023/07/31 08:03:33;;;;;;;0.40;0.40;;;20.70;99.90;;;;;;5044803;28;20060;-86
2023/07/31 08:06:00;;;;;;;0.65;0.50;;;20.70;99.90;;;;;;5046147;28;20634;-85
2023/07/31 08:08:28;;;;;;;0.60;0.50;;;20.70;66.30;;;;;;5044137;28;20098;-85
2023/07/31 08:10:55;;;;;;;1.13;0.60;;;20.70;99.90;;;;;;5032940;28;20045;-86
2023/07/31 08:13:21;;;;;;;1.17;0.47;;;20.70;99.90;;;;;;5060543;28;20060;-85
2023/07/31 08:15:48;;;;;;;0.73;0.40;;;20.70;99.90;;;;;;5027273;28;20052;-85
2023/07/31 08:18:17;;;;;;;0.52;0.40;;;20.70;90.90;;;;;;5042593;28;20049;-84
2023/07/31 08:20:44;;;;;;;0.63;0.50;;;20.70;1.00;;;;;;5041135;28;20408;-82
2023/07/31 08:23:11;;;;;;;1.00;0.77;;;20.70;1.00;;;;;;5010632;28;20084;-84
2023/07/31 08:25:38;;;;;;;0.50;0.47;;;20.50;1.00;;;;;;5039732;28;20041;-83
2023/07/31 08:28:05;;;;;;;0.85;0.60;;;20.50;61.00;;;;;;5036690;28;20053;-84
2023/07/31 08:30:33;;;;;;;1.00;0.70;;;20.70;99.90;;;;;;5040783;28;20207;-83
2023/07/31 08:33:00;;;;;;;1.40;1.00;;;20.90;99.90;;;;;;5042049;28;20194;-84
2023/07/31 08:35:30;;;;;;;1.10;0.88;;;21.20;6.70;;;;;;5037307;28;20049;-86
2023/07/31 08:37:56;;;;;;;0.88;0.80;;;21.40;99.90;;;;;;5057636;28;20045;-86
2023/07/31 08:40:23;;;;;;;0.70;0.60;;;21.50;1.00;;;;;;5013893;28;20049;-84
2023/07/31 08:42:53;;;;;;;1.42;1.00;;;21.60;51.00;;;;;;5045194;28;20618;-84
2023/07/31 08:45:20;;;;;;;0.73;0.60;;;21.60;1.00;;;;;;5059493;28;20057;-85
2023/07/31 08:47:48;;;;;;;1.33;0.90;;;21.60;99.90;;;;;;5067412;28;20536;-84
2023/07/31 08:50:18;;;;;;;0.93;0.68;;;21.60;1.00;;;;;;5050143;28;20083;-83
2023/07/31 08:52:49;;;;;;;1.08;0.70;;;21.60;99.90;;;;;;5050038;28;20059;-84
2023/07/31 08:55:16;;;;;;;0.57;0.50;;;21.60;99.90;;;;;;5067360;28;20383;-86
2023/07/31 08:57:43;;;;;;;0.60;0.60;;;21.70;77.50;;;;;;5046773;28;20083;-84
2023/07/31 09:00:10;;;;;;;0.80;0.60;;;21.70;99.90;;;;;;5043630;28;20068;-84
2023/07/31 09:02:57;;;;;;;1.17;0.68;;;21.60;1.00;;;;;;5044261;28;20182;-83
2023/07/31 09:05:24;;;;;;;0.50;0.50;;;21.50;1.00;;;;;;5043826;28;20056;-86
2023/07/31 09:07:51;;;;;;;0.77;0.70;;;21.50;99.90;;;;;;5043582;28;20455;-85
2023/07/31 09:10:18;;;;;;;0.80;0.70;;;21.50;99.90;;;;;;5029997;28;20061;-85
2023/07/31 09:12:45;;;;;;;1.15;0.63;;;21.30;99.90;;;;;;5031085;28;20555;-86
2023/07/31 09:15:11;;;;;;;1.08;0.75;;;21.10;1.00;;;;;;5047317;28;20061;-86
2023/07/31 09:18:03;;;;;;;0.88;0.68;;;21.00;99.90;;;;;;5046499;28;20338;-86
2023/07/31 09:20:31;;;;;;;0.88;0.80;;;21.00;99.90;;;;;;5028488;28;20061;-86
2023/07/31 09:23:07;;;;;;;1.48;0.90;;;21.00;99.90;;;;;;5046355;28;20484;-86
2023/07/31 09:25:34;;;;;;;0.50;0.47;;;21.00;99.90;;;;;;5049314;28;20053;-84
2023/07/31 09:28:05;;;;;;;0.65;0.50;;;21.10;1.00;;;;;;5048431;28;20380;-86
2023/07/31 09:30:46;;;;;;;0.90;0.60;;;21.10;99.90;;;;;;5068200;28;20048;-85
2023/07/31 09:33:13;;;;;;;0.50;0.50;;;21.00;99.90;;;;;;5064487;28;20617;-84
2023/07/31 09:35:42;;;;;;;0.50;0.50;;;21.00;67.30;;;;;;5047955;28;20130;-86
2023/07/31 09:38:10;;;;;;;0.40;0.40;;;21.00;1.00;;;;;;5032310;28;20102;-86
2023/07/31 09:40:44;;;;;;;0.60;0.60;;;20.90;99.90;;;;;;5063779;28;20041;-84
2023/07/31 09:43:13;;;;;;;0.77;0.43;;;20.80;1.00;;;;;;5046836;28;20095;-85
2023/07/31 09:45:41;;;;;;;0.43;0.40;;;20.80;99.90;;;;;;5068460;28;20049;-85
2023/07/31 09:48:09;;;;;;;0.50;0.50;;;20.70;40.10;;;;;;5049076;28;20128;-85
2023/07/31 09:50:38;;;;;;;0.40;0.40;;;20.70;1.00;;;;;;5031053;28;20081;-85
2023/07/31 09:53:05;;;;;;;0.40;0.40;;;20.80;1.00;;;;;;5062882;28;20666;-84
2023/07/31 09:55:32;;;;;;;0.40;0.40;;;20.80;99.90;;;;;;5065131;28;20403;-85
2023/07/31 09:57:59;;;;;;;0.73;0.50;;;21.00;99.90;;;;;;5047995;28;20091;-85
2023/07/31 10:00:28;;;;;;;0.50;0.50;;;21.10;99.90;;;;;;5048257;28;20052;-85
2023/07/31 10:02:55;;;;;;;0.77;0.50;;;21.20;1.00;;;;;;5050022;28;20062;-85
2023/07/31 10:05:22;;;;;;;0.40;0.40;;;21.30;1.00;;;;;;5027382;28;20103;-86
2023/07/31 10:07:53;;;;;;;0.43;0.40;;;21.30;1.00;;;;;;5044073;28;20056;-85
2023/07/31 10:10:21;;;;;;;0.63;0.50;;;21.40;99.90;;;;;;5043849;28;20060;-84
2023/07/31 10:12:56;;;;;;;0.90;0.50;;;21.50;99.90;;;;;;5044185;28;20064;-85
2023/07/31 10:15:22;;;;;;;0.57;0.55;;;21.60;99.90;;;;;;5063178;28;20048;-85
2023/07/31 10:17:50;;;;;;;0.52;0.40;;;21.70;99.90;;;;;;5064892;28;20052;-84
2023/07/31 10:20:16;;;;;;;0.98;0.57;;;21.90;99.90;;;;;;5062734;28;20080;-85
2023/07/31 10:22:45;;;;;;;0.75;0.40;;;22.00;42.70;;;;;;5063412;28;20044;-86
2023/07/31 10:25:12;;;;;;;0.40;0.40;;;22.00;1.00;;;;;;5063447;28;20372;-84
2023/07/31 10:27:39;;;;;;;0.35;0.35;;;21.90;1.00;;;;;;5063713;28;20143;-85
2023/07/31 10:30:07;;;;;;;0.30;0.30;;;21.90;1.00;;;;;;5067506;28;20049;-84
2023/07/31 10:32:34;;;;;;;0.47;0.47;;;21.90;1.00;;;;;;5067015;28;20053;-86
2023/07/31 10:35:02;;;;;;;1.02;0.68;;;21.80;99.90;;;;;;5064585;28;20052;-84
2023/07/31 10:37:35;;;;;;;1.27;0.98;;;21.80;99.90;;;;;;5064824;28;20204;-85
2023/07/31 10:40:04;;;;;;;0.52;0.52;;;22.00;99.90;;;;;;5049041;28;20044;-86
2023/07/31 10:42:52;;;;;;;1.48;0.63;;;22.20;99.90;;;;;;5064874;28;20051;-86
2023/07/31 10:45:36;;;;;;;0.95;0.70;;;22.40;99.90;;;;;;5064739;28;20048;-86
2023/07/31 10:48:04;;;;;;;0.70;0.60;;;22.50;99.90;;;;;;5065686;28;20062;-85
2023/07/31 10:50:32;;;;;;;0.95;0.80;;;22.40;99.90;;;;;;5065066;28;20068;-85
2023/07/31 10:53:00;;;;;;;0.70;0.63;;;22.40;99.90;;;;;;5063836;28;20060;-86
2023/07/31 10:55:38;;;;;;;0.63;0.50;;;22.40;99.90;;;;;;5065864;28;20052;-85
2023/07/31 10:58:06;;;;;;;0.73;0.60;;;22.50;99.90;;;;;;5066601;28;20152;-85
2023/07/31 11:00:33;;;;;;;0.95;0.70;;;22.60;99.90;;;;;;5033660;28;20064;-86
2023/07/31 11:03:08;;;;;;;0.75;0.70;;;22.70;99.90;;;;;;5058591;28;20127;-83
2023/07/31 11:05:42;;;;;;;0.60;0.60;;;22.70;99.90;;;;;;5049012;28;20140;-84
2023/07/31 11:08:19;;;;;;;1.10;0.57;;;22.80;99.90;;;;;;5038272;28;20094;-85
2023/07/31 11:10:46;;;;;;;0.60;0.50;;;22.70;99.90;;;;;;5040317;28;20143;-85
2023/07/31 11:13:13;;;;;;;1.05;0.73;;;22.60;99.90;;;;;;5027616;28;20131;-84
2023/07/31 11:15:40;;;;;;;0.63;0.50;;;22.50;99.90;;;;;;5028136;28;20081;-85
2023/07/31 11:18:08;;;;;;;1.25;0.88;;;22.50;99.90;;;;;;5041702;28;20057;-85
2023/07/31 11:20:35;;;;;;;1.17;0.60;;;22.50;99.90;;;;;;5031457;28;20053;-86
2023/07/31 11:23:03;;;;;;;0.95;0.70;;;22.40;99.90;;;;;;5028578;28;20539;-86
2023/07/31 11:25:33;;;;;;;0.95;0.70;;;22.20;99.90;;;;;;5026998;28;20049;-86
2023/07/31 11:28:04;;;;;;;0.60;0.60;;;22.20;99.90;;;;;;5040985;28;20160;-85
2023/07/31 11:30:33;;;;;;;0.80;0.80;;;22.30;99.90;;;;;;5042121;28;20068;-85
2023/07/31 11:33:07;;;;;;;1.77;1.10;;;22.50;99.90;;;;;;5043023;28;20063;-86
2023/07/31 11:35:48;;;;;;;0.80;0.60;;;22.80;99.90;;;;;;5047788;28;20443;-85
2023/07/31 11:38:24;;;;;;;1.88;0.90;;;23.00;99.90;;;;;;5040876;28;20053;-85
2023/07/31 11:40:52;;;;;;;1.63;1.00;;;23.00;99.90;;;;;;5045786;28;20102;-85
2023/07/31 11:43:19;;;;;;;1.15;0.85;;;23.00;90.90;;;;;;5050779;28;20105;-87
2023/07/31 11:45:47;;;;;;;1.13;0.90;;;23.00;91.00;;;;;;5044327;28;20053;-84
2023/07/31 11:48:27;;;;;;;1.15;0.88;;;22.90;73.90;;;;;;5025090;28;20049;-86
2023/07/31 11:51:08;;;;;;;1.67;1.00;;;22.80;75.60;;;;;;5040539;28;20075;-85
2023/07/31 11:53:43;;;;;;;1.88;1.33;;;22.70;65.30;;;;;;5041794;28;20930;-87
2023/07/31 11:56:12;;;;;;;1.75;1.20;;;22.60;58.90;;;;;;5038788;28;20048;-86
2023/07/31 11:58:38;;;;;;;1.67;0.85;;;22.50;58.40;;;;;;5029789;28;20049;-84
2023/07/31 12:01:05;;;;;;;2.00;1.17;;;22.50;54.90;;;;;;5039497;28;20163;-85
2023/07/31 12:03:32;;;;;;;2.17;1.45;;;22.40;52.70;;;;;;5040465;28;20052;-85
2023/07/31 12:05:59;;;;;;;2.13;1.50;;;22.50;53.80;;;;;;5059694;28;20044;-85
2023/07/31 12:08:26;;;;;;;1.77;1.27;;;22.50;51.50;;;;;;5040398;28;20063;-84
2023/07/31 12:10:53;;;;;;;1.70;1.40;;;22.60;50.90;;;;;;5057687;28;20060;-86
2023/07/31 12:13:22;;;;;;;1.88;1.35;;;22.70;53.40;;;;;;5059605;28;20067;-85
2023/07/31 12:15:49;;;;;;;1.35;0.98;;;22.50;50.40;;;;;;5061765;28;20682;-85
2023/07/31 12:18:18;;;;;;;1.35;1.23;;;22.40;51.50;;;;;;5057821;28;20044;-86
2023/07/31 12:20:47;;;;;;;1.38;1.08;;;22.30;48.90;;;;;;5057115;28;20076;-84
2023/07/31 12:23:18;;;;;;;1.80;1.23;;;22.00;48.20;;;;;;5055202;28;20061;-84
2023/07/31 12:25:45;;;;;;;1.40;1.08;;;21.80;51.30;;;;;;5057774;28;20125;-86
2023/07/31 12:28:11;;;;;;;1.45;1.00;;;21.70;50.40;;;;;;5056987;28;20056;-84
2023/07/31 12:30:39;;;;;;;1.65;0.82;;;21.60;53.90;;;;;;5058235;28;20059;-84
2023/07/31 12:33:14;;;;;;;1.40;0.90;;;21.40;56.30;;;;;;5056781;28;20087;-84
2023/07/31 12:35:42;;;;;;;1.35;0.95;;;21.30;65.30;;;;;;5057580;28;20048;-85
2023/07/31 12:38:09;;;;;;;1.15;0.90;;;21.30;68.70;;;;;;5056989;28;20682;-82
2023/07/31 12:40:39;;;;;;;2.10;1.17;;;21.30;71.70;;;;;;5059697;28;20572;-85
2023/07/31 12:43:06;;;;;;;1.65;1.10;;;21.20;73.70;;;;;;5062564;28;20130;-85
2023/07/31 12:45:34;;;;;;;1.65;1.10;;;21.20;78.40;;;;;;5065178;28;20475;-85
2023/07/31 12:48:01;;;;;;;1.80;1.10;;;21.20;78.10;;;;;;5064704;28;20179;-85
2023/07/31 12:50:27;;;;;;;1.83;1.15;;;21.20;91.50;;;;;;5048080;28;20052;-85
2023/07/31 12:52:55;;;;;;;1.48;1.10;;;21.10;99.90;;;;;;5062967;28;20109;-87